South Killingly, Connecticut
Current Conditions -  °F | °C
As of 11:52 AM on Tuesday 27 Jan 2015 (Local Time) from KIJD Reporting Station
Light Snow Light Snow  
Wind Chill:   Ceiling: 1700
Heat Index: 20°   Visibility: 1.2mi
Dew Point: 13°   Wind: 20mph
Humidity: 74%   Direction: 330°NNW
Pressure: 29.55"   Gusts: 26mph
Location:  41.7938°N, 71.8615°W
Report Text: KIJD 271652Z AUTO 33017G23KT 1 1/4SM -SN OVC017 M07/M11 A2955 RMK AO2 SLP010 P0000 T10671106
Loading
Personal Weather Stations






























Interactive Weather Map New forecast layout! Learn more

10-Day Weather Forecast

Advertisements
Track Severe Weather on mobile